Time;durP1;ratioP1;P1;durP2;ratioP2;P2;SDS_P1;SDS_P2;PMS_P1;PMS_P2;Temp;Humidity;BMP_temperature;BMP_pressure;BME280_temperature;BME280_humidity;BME280_pressure;Samples;Min_cycle;Max_cycle;Signal;HPM_P1;HPM_P2
2021/12/09 00:01:33;;;;;;;69.40;28.30;;;;;;;-2.17;83.63;99410.68;103165;1313;25852;-57
2021/12/09 00:04:06;;;;;;;71.70;27.90;;;;;;;-2.17;83.65;99410.14;103259;1316;25626;-56
2021/12/09 00:06:36;;;;;;;78.30;29.90;;;;;;;-2.17;83.50;99404.04;103192;1319;26824;-59
2021/12/09 00:09:08;;;;;;;73.80;29.30;;;;;;;-2.16;83.69;99392.76;103183;1316;25351;-57
2021/12/09 00:11:43;;;;;;;73.30;28.40;;;;;;;-2.13;83.71;99389.45;103135;1316;24263;-57
2021/12/09 00:14:14;;;;;;;69.40;27.20;;;;;;;-2.13;83.61;99392.02;103166;1314;25589;-56
2021/12/09 00:16:42;;;;;;;74.30;28.50;;;;;;;-2.15;83.72;99390.33;103258;1316;23100;-56
2021/12/09 00:19:10;;;;;;;75.20;28.80;;;;;;;-2.14;83.60;99387.04;103074;1319;22830;-58
2021/12/09 00:21:39;;;;;;;62.80;24.30;;;;;;;-2.15;83.70;99373.92;103086;1319;22731;-57
2021/12/09 00:24:07;;;;;;;73.30;29.00;;;;;;;-2.11;83.86;99370.65;103138;1314;22614;-57
2021/12/09 00:26:36;;;;;;;69.90;28.10;;;;;;;-2.10;83.77;99374.79;103014;1313;25067;-57
2021/12/09 00:29:04;;;;;;;69.20;27.70;;;;;;;-2.08;83.73;99367.41;103113;1313;22764;-56
2021/12/09 00:31:32;;;;;;;67.40;28.50;;;;;;;-2.09;83.71;99368.02;102953;1312;24365;-57
2021/12/09 00:34:01;;;;;;;68.20;26.80;;;;;;;-2.09;83.57;99366.27;103195;1318;22884;-57
2021/12/09 00:36:36;;;;;;;67.50;28.30;;;;;;;-2.09;83.57;99365.94;103362;1315;26510;-56
2021/12/09 00:39:07;;;;;;;75.10;29.10;;;;;;;-2.09;83.58;99353.80;103342;1316;24264;-57
2021/12/09 00:41:35;;;;;;;64.00;25.20;;;;;;;-2.08;83.59;99354.91;103139;1313;23322;-57
2021/12/09 00:44:05;;;;;;;68.20;25.90;;;;;;;-2.10;83.49;99355.64;103121;1314;22587;-57
2021/12/09 00:46:34;;;;;;;61.50;24.50;;;;;;;-2.11;83.41;99355.67;103193;1315;22586;-57
2021/12/09 00:49:03;;;;;;;71.00;28.90;;;;;;;-2.14;83.46;99351.88;103196;1316;22730;-58
2021/12/09 00:51:32;;;;;;;68.00;28.20;;;;;;;-2.14;83.68;99355.94;103395;1319;27106;-57
2021/12/09 00:54:00;;;;;;;67.30;27.20;;;;;;;-2.13;83.61;99350.08;103294;1312;22767;-58
2021/12/09 00:56:28;;;;;;;65.90;27.00;;;;;;;-2.14;83.75;99354.14;103107;1312;22880;-56
2021/12/09 00:58:57;;;;;;;60.50;24.50;;;;;;;-2.15;83.44;99350.58;103103;1312;24336;-58
2021/12/09 01:01:25;;;;;;;67.70;25.00;;;;;;;-2.16;83.57;99351.76;103261;1313;25534;-58
2021/12/09 01:03:54;;;;;;;64.70;25.40;;;;;;;-2.16;83.64;99348.85;103182;1317;22720;-59
2021/12/09 01:06:22;;;;;;;65.50;25.60;;;;;;;-2.15;83.65;99348.08;103112;1312;22966;-58
2021/12/09 01:08:50;;;;;;;63.40;28.00;;;;;;;-2.15;83.63;99342.90;103025;1318;22846;-58
2021/12/09 01:11:18;;;;;;;66.30;24.50;;;;;;;-2.13;83.68;99344.21;103166;1312;22719;-58
2021/12/09 01:13:47;;;;;;;68.80;26.10;;;;;;;-2.14;83.53;99339.77;103091;1315;24194;-56
2021/12/09 01:16:16;;;;;;;65.30;26.70;;;;;;;-2.16;83.59;99345.66;103189;1313;22608;-58
2021/12/09 01:18:45;;;;;;;66.90;26.40;;;;;;;-2.17;83.62;99351.92;103172;1312;23998;-54
2021/12/09 01:21:13;;;;;;;58.30;24.00;;;;;;;-2.18;83.76;99358.19;103142;1313;22775;-59
2021/12/09 01:23:42;;;;;;;62.20;24.40;;;;;;;-2.18;83.69;99354.91;103356;1312;24263;-57
2021/12/09 01:26:10;;;;;;;56.70;21.50;;;;;;;-2.20;83.69;99351.57;103297;1312;22586;-58
2021/12/09 01:28:46;;;;;;;66.60;24.70;;;;;;;-2.22;83.66;99346.53;102915;1313;26802;-57
2021/12/09 01:31:22;;;;;;;64.60;25.40;;;;;;;-2.22;83.81;99349.27;103083;1313;24458;-57
2021/12/09 01:33:53;;;;;;;61.00;22.90;;;;;;;-2.22;83.61;99351.37;103218;1319;22770;-57
2021/12/09 01:36:21;;;;;;;61.00;23.70;;;;;;;-2.25;83.69;99347.27;102975;1312;24346;-56
2021/12/09 01:38:49;;;;;;;67.80;25.60;;;;;;;-2.24;83.72;99343.29;103326;1313;24231;-56
2021/12/09 01:41:19;;;;;;;58.60;21.10;;;;;;;-2.23;83.78;99341.77;103011;1312;23276;-57
2021/12/09 01:43:48;;;;;;;62.80;22.90;;;;;;;-2.24;83.68;99343.36;103241;1314;22629;-58
2021/12/09 01:46:20;;;;;;;65.40;24.30;;;;;;;-2.24;83.67;99346.48;103295;1312;22593;-57
2021/12/09 01:48:50;;;;;;;62.40;23.50;;;;;;;-2.22;83.80;99346.77;103312;1316;22661;-58
2021/12/09 01:51:19;;;;;;;56.40;22.80;;;;;;;-2.22;83.65;99350.98;103327;1312;24247;-57
2021/12/09 01:53:50;;;;;;;64.10;23.70;;;;;;;-2.23;83.61;99353.41;102934;1312;22890;-57
2021/12/09 01:56:21;;;;;;;;;;;;;;;-2.24;83.55;99353.59;103393;1312;22730;-56
2021/12/09 01:58:49;;;;;;;;;;;;;;;-2.24;83.74;99362.73;103310;1312;23055;-58
2021/12/09 02:01:19;;;;;;;63.80;23.80;;;;;;;-2.23;83.73;99358.41;103476;1313;26908;-58
2021/12/09 02:03:49;;;;;;;61.70;23.60;;;;;;;-2.24;83.75;99353.83;103179;1313;25269;-58
2021/12/09 02:06:17;;;;;;;54.30;20.20;;;;;;;-2.24;83.73;99350.55;103234;1315;24453;-56
2021/12/09 02:08:46;;;;;;;59.20;22.70;;;;;;;-2.29;83.67;99356.95;103196;1313;22906;-56
2021/12/09 02:11:14;;;;;;;68.40;23.30;;;;;;;-2.31;83.68;99357.61;102894;1317;26877;-56
2021/12/09 02:13:44;;;;;;;64.50;24.70;;;;;;;-2.35;83.86;99354.86;103166;1312;25648;-58
2021/12/09 02:16:13;;;;;;;64.40;24.80;;;;;;;-2.35;83.96;99359.00;103070;1314;23028;-58
2021/12/09 02:18:42;;;;;;;61.60;23.10;;;;;;;-2.34;83.91;99367.34;103252;1316;26350;-57
2021/12/09 02:21:14;;;;;;;58.80;23.90;;;;;;;-2.34;83.93;99367.89;103201;1315;25797;-57
2021/12/09 02:23:45;;;;;;;70.60;25.40;;;;;;;-2.33;83.89;99375.28;103349;1313;23073;-55
2021/12/09 02:26:15;;;;;;;63.90;24.30;;;;;;;-2.32;83.80;99373.55;103257;1312;25435;-56
2021/12/09 02:28:45;;;;;;;61.90;24.50;;;;;;;-2.29;83.97;99373.36;103314;1313;22586;-56
2021/12/09 02:31:14;;;;;;;67.20;25.30;;;;;;;-2.27;83.99;99371.45;103119;1313;22818;-57
2021/12/09 02:33:42;;;;;;;62.20;24.00;;;;;;;-2.26;83.87;99376.83;103258;1313;22799;-59
2021/12/09 02:36:10;;;;;;;66.50;23.60;;;;;;;-2.27;83.85;99373.77;102940;1312;24523;-55
2021/12/09 02:38:43;;;;;;;61.20;24.60;;;;;;;-2.26;83.83;99375.34;103263;1312;24708;-57
2021/12/09 02:41:16;;;;;;;68.90;25.70;;;;;;;-2.25;84.02;99374.86;103097;1313;24442;-58
2021/12/09 02:43:46;;;;;;;65.90;26.30;;;;;;;-2.24;83.94;99375.30;103152;1312;25698;-58
2021/12/09 02:46:17;;;;;;;58.20;24.60;;;;;;;-2.24;83.70;99381.01;103158;1313;22822;-56
2021/12/09 02:48:46;;;;;;;69.60;25.00;;;;;;;-2.25;83.76;99379.62;103239;1313;23286;-59
2021/12/09 02:51:15;;;;;;;66.40;26.30;;;;;;;-2.23;83.81;99376.15;103248;1312;25815;-57
2021/12/09 02:53:43;;;;;;;73.60;27.10;;;;;;;-2.23;83.69;99376.46;103103;1312;22769;-58
2021/12/09 02:56:13;;;;;;;64.50;25.60;;;;;;;-2.21;83.95;99380.25;103103;1312;25757;-55
2021/12/09 02:58:42;;;;;;;72.50;24.10;;;;;;;-2.19;83.87;99379.39;103135;1312;23741;-56
2021/12/09 03:01:16;;;;;;;68.70;25.60;;;;;;;-2.19;83.93;99375.46;102968;1313;24336;-58
2021/12/09 03:03:50;;;;;;;64.30;26.00;;;;;;;-2.20;83.76;99382.20;103129;1319;22768;-55
2021/12/09 03:06:19;;;;;;;67.00;26.60;;;;;;;-2.21;83.75;99377.52;102808;1317;22650;-57
2021/12/09 03:08:48;;;;;;;69.60;29.30;;;;;;;-2.19;83.89;99373.45;103106;1312;24333;-60
2021/12/09 03:11:19;;;;;;;69.00;27.20;;;;;;;-2.18;83.80;99372.17;103126;1314;24330;-58
2021/12/09 03:13:49;;;;;;;67.60;26.00;;;;;;;-2.18;83.90;99369.67;103104;1312;22722;-55
2021/12/09 03:16:22;;;;;;;68.90;26.70;;;;;;;-2.16;83.90;99371.84;103157;1315;22798;-58
2021/12/09 03:18:52;;;;;;;68.60;26.30;;;;;;;-2.15;83.86;99366.11;103276;1315;22664;-56
2021/12/09 03:21:24;;;;;;;71.60;26.80;;;;;;;-2.14;83.76;99358.90;102957;1317;25563;-56
2021/12/09 03:23:52;;;;;;;73.00;26.10;;;;;;;-2.14;83.82;99352.34;103228;1312;25551;-55
2021/12/09 03:26:28;;;;;;;70.10;26.50;;;;;;;-2.14;83.75;99346.25;102992;1312;22749;-55
2021/12/09 03:28:58;;;;;;;74.20;25.90;;;;;;;-2.12;83.69;99339.29;103140;1312;26150;-58
2021/12/09 03:31:27;;;;;;;65.00;26.10;;;;;;;-2.09;83.85;99336.41;103271;1314;24504;-58
2021/12/09 03:33:55;;;;;;;65.80;28.60;;;;;;;-2.07;83.94;99334.80;103270;1319;25697;-57
2021/12/09 03:36:26;;;;;;;65.00;26.30;;;;;;;-2.05;83.75;99337.81;103092;1313;22733;-58
2021/12/09 03:38:54;;;;;;;70.90;28.60;;;;;;;-2.04;83.76;99334.05;103062;1312;25271;-58
2021/12/09 03:41:22;;;;;;;66.70;25.50;;;;;;;-2.06;83.75;99332.14;103230;1313;25524;-56
2021/12/09 03:43:50;;;;;;;72.40;29.60;;;;;;;-2.05;83.70;99327.42;103316;1312;22620;-58
2021/12/09 03:46:19;;;;;;;64.20;26.60;;;;;;;-2.04;83.74;99335.14;103131;1315;22765;-58
2021/12/09 03:48:47;;;;;;;70.40;28.40;;;;;;;-2.01;83.71;99343.31;103336;1318;22685;-57
2021/12/09 03:51:17;;;;;;;67.30;26.30;;;;;;;-2.01;83.75;99346.20;103261;1313;22677;-56
2021/12/09 03:53:45;;;;;;;74.90;30.70;;;;;;;-2.03;83.71;99345.21;103145;1314;22622;-57
2021/12/09 03:56:13;;;;;;;74.00;30.30;;;;;;;-2.03;83.80;99338.88;103156;1312;25528;-57
2021/12/09 03:58:42;;;;;;;70.60;28.70;;;;;;;-2.02;83.67;99342.23;103323;1312;26748;-57
2021/12/09 04:01:11;;;;;;;72.70;28.70;;;;;;;-2.02;83.85;99345.73;103122;1317;24853;-55
2021/12/09 04:03:39;;;;;;;75.70;29.70;;;;;;;-2.01;83.79;99352.74;103139;1319;22644;-57
2021/12/09 04:06:07;;;;;;;65.10;26.90;;;;;;;-2.00;83.71;99355.08;103217;1316;23066;-56
2021/12/09 04:08:35;;;;;;;71.80;28.70;;;;;;;-1.99;83.74;99358.83;103204;1312;22744;-57
2021/12/09 04:11:05;;;;;;;68.10;28.10;;;;;;;-1.99;83.73;99360.78;103142;1313;25622;-57
2021/12/09 04:13:34;;;;;;;69.40;28.30;;;;;;;-2.00;83.82;99357.04;103224;1312;22857;-55
2021/12/09 04:16:04;;;;;;;66.20;26.50;;;;;;;-2.01;83.83;99356.89;103229;1317;24237;-57
2021/12/09 04:18:33;;;;;;;66.80;28.80;;;;;;;-1.99;83.74;99355.08;103242;1319;24859;-57
2021/12/09 04:21:02;;;;;;;73.20;27.10;;;;;;;-1.99;83.69;99357.35;102941;1317;25532;-57
2021/12/09 04:23:31;;;;;;;72.40;27.80;;;;;;;-1.99;83.75;99362.48;103141;1312;22744;-58
2021/12/09 04:26:00;;;;;;;71.70;26.90;;;;;;;-1.99;83.69;99362.50;103347;1313;22727;-54
2021/12/09 04:28:28;;;;;;;77.60;29.00;;;;;;;-2.02;83.57;99366.52;103191;1312;24303;-57
2021/12/09 04:30:56;;;;;;;81.10;31.20;;;;;;;-2.01;83.86;99366.36;103145;1312;23137;-58
2021/12/09 04:33:26;;;;;;;73.80;30.10;;;;;;;-2.00;83.67;99366.34;103182;1314;23825;-57
2021/12/09 04:35:56;;;;;;;69.30;29.40;;;;;;;-2.01;83.61;99358.38;103261;1312;22903;-54
2021/12/09 04:38:25;;;;;;;66.30;28.00;;;;;;;-2.00;83.71;99361.89;103049;1315;24432;-57
2021/12/09 04:40:54;;;;;;;69.80;28.90;;;;;;;-2.01;83.54;99356.17;103140;1312;24266;-55
2021/12/09 04:43:22;;;;;;;68.40;27.00;;;;;;;-2.01;83.57;99360.56;103187;1316;22812;-57
2021/12/09 04:45:50;;;;;;;74.90;30.10;;;;;;;-2.01;83.60;99355.73;103200;1317;22722;-57
2021/12/09 04:48:18;;;;;;;70.60;28.70;;;;;;;-2.00;83.69;99363.92;103200;1316;22619;-56
2021/12/09 04:50:47;;;;;;;77.60;31.90;;;;;;;-2.00;83.59;99365.70;103255;1316;22866;-57
2021/12/09 04:53:16;;;;;;;68.20;29.90;;;;;;;-2.00;83.72;99369.06;103009;1318;24307;-56
2021/12/09 04:55:44;;;;;;;76.90;31.30;;;;;;;-1.98;83.75;99371.93;103184;1312;22735;-54
2021/12/09 04:58:13;;;;;;;74.40;28.90;;;;;;;-1.98;83.72;99365.44;103204;1312;22627;-57
2021/12/09 05:00:41;;;;;;;76.30;29.60;;;;;;;-1.98;83.63;99373.72;103238;1317;24353;-57
2021/12/09 05:03:12;;;;;;;75.50;30.20;;;;;;;-1.95;83.69;99383.77;103141;1315;22736;-55
2021/12/09 05:05:43;;;;;;;73.00;30.50;;;;;;;-1.94;83.62;99394.05;103352;1316;22617;-57
2021/12/09 05:08:14;;;;;;;71.70;30.40;;;;;;;-1.92;83.69;99401.38;103451;1314;25733;-57
2021/12/09 05:10:55;;;;;;;74.30;30.70;;;;;;;-1.91;83.61;99399.88;103235;1310;22707;-59
2021/12/09 05:13:25;;;;;;;74.70;29.20;;;;;;;-1.90;83.73;99385.16;103229;1312;26773;-54
2021/12/09 05:15:55;;;;;;;77.80;31.40;;;;;;;-1.88;83.54;99378.33;103397;1312;25736;-54
2021/12/09 05:18:24;;;;;;;76.40;30.30;;;;;;;-1.90;83.39;99383.28;103433;1312;22600;-57
2021/12/09 05:20:54;;;;;;;72.40;28.60;;;;;;;-1.89;83.54;99374.43;103242;1312;26040;-58
2021/12/09 05:23:23;;;;;;;73.60;28.30;;;;;;;-1.87;83.44;99372.77;103276;1312;22586;-57
2021/12/09 05:25:52;;;;;;;67.30;28.80;;;;;;;-1.88;83.45;99373.70;103501;1313;24276;-58
2021/12/09 05:28:30;;;;;;;71.70;29.20;;;;;;;-1.87;83.39;99374.56;103416;1313;24958;-59
2021/12/09 05:33:48;;;;;;;74.40;28.30;;;;;;;-1.88;83.68;99379.97;103284;1315;22818;-56
2021/12/09 05:36:18;;;;;;;77.40;29.00;;;;;;;-1.87;83.47;99391.37;103354;1312;25573;-56
2021/12/09 05:38:46;;;;;;;70.10;29.20;;;;;;;-1.87;83.46;99389.65;103298;1315;22584;-57
2021/12/09 05:41:16;;;;;;;76.90;29.10;;;;;;;-1.87;83.44;99391.05;103551;1312;23181;-57
2021/12/09 05:43:44;;;;;;;67.60;28.00;;;;;;;-1.87;83.53;99392.77;103622;1312;25611;-56
2021/12/09 05:46:12;;;;;;;75.60;29.40;;;;;;;-1.88;83.41;99386.36;103280;1316;22863;-58
2021/12/09 05:48:41;;;;;;;71.00;29.20;;;;;;;-1.86;83.57;99383.22;103654;1318;22770;-57
2021/12/09 05:51:09;;;;;;;77.00;28.90;;;;;;;-1.84;83.59;99394.98;103105;1316;24236;-56
2021/12/09 05:53:37;;;;;;;78.90;31.00;;;;;;;-1.83;83.48;99401.61;103271;1312;25865;-56
2021/12/09 05:56:07;;;;;;;87.10;36.10;;;;;;;-1.82;83.43;99403.25;103161;1312;25659;-55
2021/12/09 05:58:35;;;;;;;74.90;31.40;;;;;;;-1.82;83.55;99389.79;103177;1312;24108;-57
2021/12/09 06:01:03;;;;;;;72.90;29.60;;;;;;;-1.81;83.46;99387.35;103152;1316;25714;-57
2021/12/09 06:03:33;;;;;;;74.00;30.30;;;;;;;-1.81;83.52;99375.77;103109;1312;23191;-56
2021/12/09 06:06:01;;;;;;;78.10;29.70;;;;;;;-1.82;83.53;99381.03;103588;1313;24176;-57
2021/12/09 06:08:29;;;;;;;70.60;31.20;;;;;;;-1.82;83.48;99383.16;103114;1316;26805;-55
2021/12/09 06:10:59;;;;;;;75.30;29.50;;;;;;;-1.81;83.57;99381.34;103031;1313;60983;-57
2021/12/09 06:13:30;;;;;;;74.90;30.90;;;;;;;-1.79;83.43;99387.48;103765;1312;24813;-58
2021/12/09 06:15:58;;;;;;;85.40;33.60;;;;;;;-1.78;83.44;99396.38;103274;1318;25758;-56
2021/12/09 06:18:26;;;;;;;86.30;35.90;;;;;;;-1.80;83.48;99404.06;103051;1312;22874;-57
2021/12/09 06:20:54;;;;;;;88.50;36.90;;;;;;;-1.80;83.53;99392.75;103019;1313;26911;-57
2021/12/09 06:23:23;;;;;;;80.40;34.20;;;;;;;-1.80;83.55;99393.45;102961;1313;22645;-54
2021/12/09 06:25:52;;;;;;;82.00;34.90;;;;;;;-1.80;83.58;99389.61;103130;1312;25703;-57
2021/12/09 06:28:20;;;;;;;68.40;28.70;;;;;;;-1.79;83.71;99387.48;103068;1312;22624;-54
2021/12/09 06:30:49;;;;;;;80.90;30.40;;;;;;;-1.79;83.48;99393.49;102988;1312;25688;-58
2021/12/09 06:33:17;;;;;;;83.20;32.20;;;;;;;-1.79;83.50;99392.26;102981;1312;22630;-54
2021/12/09 06:35:45;;;;;;;72.50;30.80;;;;;;;-1.78;83.58;99391.91;103227;1309;24449;-57
2021/12/09 06:38:16;;;;;;;76.40;30.40;;;;;;;-1.78;83.49;99391.83;103227;1312;22746;-55
2021/12/09 06:40:45;;;;;;;81.00;29.80;;;;;;;-1.76;83.58;99399.08;103074;1312;25495;-56
2021/12/09 06:43:13;;;;;;;74.20;29.70;;;;;;;-1.74;83.44;99404.66;102898;1312;22690;-54
2021/12/09 06:45:42;;;;;;;75.50;32.30;;;;;;;-1.76;83.48;99408.06;103355;1314;22763;-55
2021/12/09 06:48:11;;;;;;;81.30;32.90;;;;;;;-1.75;83.40;99409.69;103031;1318;22815;-57
2021/12/09 06:50:39;;;;;;;75.40;30.60;;;;;;;-1.76;83.50;99421.59;103082;1310;22619;-57
2021/12/09 06:53:09;;;;;;;80.20;31.50;;;;;;;-1.77;83.50;99434.50;102957;1309;24409;-56
2021/12/09 06:55:38;;;;;;;79.60;31.50;;;;;;;-1.79;83.58;99443.53;103062;1316;22583;-56
2021/12/09 06:58:06;;;;;;;81.00;34.10;;;;;;;-1.80;83.50;99445.98;103101;1312;24404;-56
2021/12/09 07:00:41;;;;;;;78.50;32.10;;;;;;;-1.80;83.56;99457.77;103322;1319;24355;-57
2021/12/09 07:03:10;;;;;;;78.00;30.80;;;;;;;-1.81;83.60;99453.73;103139;1313;23128;-54
2021/12/09 07:05:39;;;;;;;81.80;31.50;;;;;;;-1.84;83.67;99462.74;102992;1312;25433;-54
2021/12/09 07:08:07;;;;;;;85.30;33.60;;;;;;;-1.83;83.72;99473.21;103310;1313;25673;-57
2021/12/09 07:10:35;;;;;;;79.80;31.40;;;;;;;-1.84;83.67;99470.56;103047;1312;25668;-57
2021/12/09 07:13:05;;;;;;;87.00;33.80;;;;;;;-1.85;83.71;99468.16;102931;1317;24233;-56
2021/12/09 07:15:34;;;;;;;89.60;34.20;;;;;;;-1.83;83.77;99471.17;103198;1319;22978;-54
2021/12/09 07:18:02;;;;;;;76.00;31.60;;;;;;;-1.81;83.84;99479.44;103220;1314;22736;-56
2021/12/09 07:20:32;;;;;;;82.90;32.50;;;;;;;-1.79;83.83;99470.26;103275;1312;24268;-56
2021/12/09 07:23:00;;;;;;;90.50;35.60;;;;;;;-1.78;83.91;99465.16;103467;1313;22845;-57
2021/12/09 07:25:29;;;;;;;86.30;35.60;;;;;;;-1.76;83.94;99458.02;103230;1314;22743;-56
2021/12/09 07:27:58;;;;;;;81.80;32.40;;;;;;;-1.74;83.93;99447.04;103231;1318;23261;-57
2021/12/09 07:30:28;;;;;;;88.70;35.10;;;;;;;-1.73;83.96;99449.12;103355;1313;22612;-58
2021/12/09 07:32:57;;;;;;;95.60;38.70;;;;;;;-1.71;83.94;99453.31;103536;1316;22559;-57
2021/12/09 07:35:30;;;;;;;91.60;36.70;;;;;;;-1.68;83.91;99458.66;103195;1313;25699;-56
2021/12/09 07:37:59;;;;;;;91.00;36.50;;;;;;;-1.66;83.98;99453.09;103347;1314;22629;-58
2021/12/09 07:40:28;;;;;;;85.50;35.60;;;;;;;-1.64;83.90;99453.84;103366;1313;24739;-58
2021/12/09 07:42:57;;;;;;;88.10;36.90;;;;;;;-1.62;83.91;99452.71;103243;1316;25573;-57
2021/12/09 07:45:27;;;;;;;88.00;35.90;;;;;;;-1.61;83.97;99452.30;103286;1318;24234;-58
2021/12/09 07:47:55;;;;;;;92.10;36.50;;;;;;;-1.59;83.99;99452.11;103648;1315;22645;-57
2021/12/09 07:50:28;;;;;;;91.90;37.60;;;;;;;-1.57;84.05;99445.12;103115;1315;22617;-57
2021/12/09 07:52:57;;;;;;;88.90;34.70;;;;;;;-1.54;84.04;99453.05;103114;1312;22668;-56
2021/12/09 07:55:26;;;;;;;87.80;38.00;;;;;;;-1.54;83.82;99457.89;103222;1315;22753;-57
2021/12/09 07:57:55;;;;;;;87.60;33.00;;;;;;;-1.52;84.00;99464.98;103104;1319;22571;-56
2021/12/09 08:00:26;;;;;;;84.90;32.70;;;;;;;-1.51;83.99;99459.64;103194;1314;23089;-56
2021/12/09 08:02:55;;;;;;;93.00;38.50;;;;;;;-1.48;84.00;99458.11;103232;1314;24872;-55
2021/12/09 08:05:32;;;;;;;92.80;35.90;;;;;;;-1.45;84.05;99451.50;103166;1315;22608;-54
2021/12/09 08:08:00;;;;;;;102.30;37.00;;;;;;;-1.43;84.02;99441.36;103187;1312;22658;-57
2021/12/09 08:10:30;;;;;;;93.80;41.90;;;;;;;-1.40;83.82;99440.36;103121;1316;24444;-58
2021/12/09 08:12:59;;;;;;;95.90;40.00;;;;;;;-1.37;83.82;99439.98;103213;1316;22587;-59
2021/12/09 08:15:32;;;;;;;95.50;38.80;;;;;;;-1.33;83.98;99442.67;103327;1314;22580;-58
2021/12/09 08:18:02;;;;;;;93.40;37.10;;;;;;;-1.30;83.88;99438.53;103125;1312;22753;-56
2021/12/09 08:20:32;;;;;;;85.40;36.50;;;;;;;-1.25;83.86;99440.72;103403;1315;22590;-57
2021/12/09 08:23:01;;;;;;;101.40;44.10;;;;;;;-1.22;83.86;99435.90;103361;1315;22942;-58
2021/12/09 08:25:31;;;;;;;98.90;43.50;;;;;;;-1.21;83.81;99430.64;103289;1316;22642;-59
2021/12/09 08:28:00;;;;;;;93.50;38.20;;;;;;;-1.19;83.84;99428.48;103251;1318;24333;-58
2021/12/09 08:30:28;;;;;;;94.40;36.80;;;;;;;-1.16;83.79;99436.23;103344;1313;25762;-58
2021/12/09 08:32:57;;;;;;;96.30;36.50;;;;;;;-1.13;83.90;99429.70;103133;1315;22698;-58
2021/12/09 08:35:25;;;;;;;88.40;35.50;;;;;;;-1.11;83.94;99434.98;103191;1319;24855;-58
2021/12/09 08:37:57;;;;;;;90.40;36.70;;;;;;;-1.10;83.75;99438.73;103072;1315;22677;-58
2021/12/09 08:40:27;;;;;;;94.10;37.00;;;;;;;-1.08;83.85;99433.28;103064;1312;24520;-58
2021/12/09 08:42:56;;;;;;;96.50;36.10;;;;;;;-1.06;83.74;99436.54;103133;1312;25463;-56
2021/12/09 08:45:24;;;;;;;112.00;41.80;;;;;;;-1.07;83.78;99442.10;103207;1319;25497;-56
2021/12/09 08:47:52;;;;;;;98.50;39.30;;;;;;;-1.05;83.76;99448.25;103217;1313;22723;-57
2021/12/09 08:50:23;;;;;;;104.70;45.20;;;;;;;-1.03;83.85;99454.33;103082;1313;24408;-57
2021/12/09 08:52:53;;;;;;;89.20;37.40;;;;;;;-1.02;83.73;99460.79;103148;1313;25603;-58
2021/12/09 08:55:22;;;;;;;88.00;36.00;;;;;;;-1.01;83.80;99470.01;103053;1312;22676;-59
2021/12/09 08:57:52;;;;;;;95.80;39.20;;;;;;;-0.99;83.89;99467.86;103123;1316;25730;-56
2021/12/09 09:00:20;;;;;;;;;;;;;;;-0.97;84.03;99467.20;103258;1313;22823;-58
2021/12/09 09:02:51;;;;;;;100.50;41.50;;;;;;;-0.96;83.89;99459.34;103013;1316;22567;-58
2021/12/09 09:05:19;;;;;;;89.60;37.30;;;;;;;-0.94;83.85;99456.73;102928;1318;22627;-58
2021/12/09 09:07:49;;;;;;;92.80;38.00;;;;;;;-0.92;83.81;99458.81;103089;1315;22568;-56
2021/12/09 09:10:20;;;;;;;98.80;39.90;;;;;;;-0.90;83.93;99458.92;103174;1314;22643;-58
2021/12/09 09:12:47;;;;;;;;;;;;;;;-0.88;84.02;99459.91;103238;1318;25377;-56
2021/12/09 09:15:17;;;;;;;96.50;34.30;;;;;;;-0.86;83.78;99453.83;103024;1316;22659;-57
2021/12/09 09:17:46;;;;;;;95.90;39.50;;;;;;;-0.83;83.89;99454.63;103099;1315;22683;-58
2021/12/09 09:20:17;;;;;;;103.90;41.00;;;;;;;-0.82;83.82;99451.65;103325;1315;23971;-57
2021/12/09 09:22:46;;;;;;;100.70;41.70;;;;;;;-0.83;83.75;99454.39;103353;1315;24444;-58
2021/12/09 09:25:29;;;;;;;92.80;38.80;;;;;;;-0.82;83.62;99449.60;103137;1312;22650;-58
2021/12/09 09:27:59;;;;;;;104.60;40.80;;;;;;;-0.79;83.81;99447.06;103372;1316;23255;-57
2021/12/09 09:30:34;;;;;;;130.90;49.70;;;;;;;-0.75;83.80;99442.27;103338;1315;22661;-58
2021/12/09 09:33:06;;;;;;;127.10;45.70;;;;;;;-0.72;83.82;99434.55;103160;1316;22580;-57
2021/12/09 09:35:35;;;;;;;115.40;45.90;;;;;;;-0.70;83.77;99422.75;103154;1316;22577;-59
2021/12/09 09:38:04;;;;;;;124.30;46.00;;;;;;;-0.68;83.91;99420.75;103229;1315;24293;-56
2021/12/09 09:40:49;;;;;;;101.80;41.20;;;;;;;-0.64;83.99;99417.14;103149;1315;22590;-60
2021/12/09 09:43:31;;;;;;;132.90;50.00;;;;;;;-0.59;84.03;99415.93;103134;1316;22668;-58
2021/12/09 09:46:03;;;;;;;104.10;40.60;;;;;;;-0.54;83.92;99418.97;103255;1316;25760;-56
2021/12/09 09:48:32;;;;;;;104.60;43.60;;;;;;;-0.49;83.72;99430.06;103144;1315;25354;-58
2021/12/09 09:51:02;;;;;;;104.40;41.40;;;;;;;-0.45;83.78;99424.02;103181;1315;25256;-58
2021/12/09 09:53:31;;;;;;;102.40;41.10;;;;;;;-0.41;83.72;99415.31;103284;1316;24954;-58
2021/12/09 09:56:00;;;;;;;112.10;45.50;;;;;;;-0.39;83.80;99411.98;103325;1314;24637;-58
2021/12/09 09:58:28;;;;;;;101.90;43.20;;;;;;;-0.36;83.75;99410.89;103157;1315;22924;-59
2021/12/09 10:00:58;;;;;;;105.70;42.40;;;;;;;-0.32;83.66;99413.30;103486;1316;25281;-59
2021/12/09 10:03:30;;;;;;;92.90;39.80;;;;;;;-0.31;83.59;99408.52;103018;1315;25335;-58
2021/12/09 10:06:02;;;;;;;101.70;41.80;;;;;;;-0.30;83.61;99409.02;103164;1315;25691;-58
2021/12/09 10:08:33;;;;;;;109.30;45.30;;;;;;;-0.29;83.52;99411.35;103081;1315;22606;-57
2021/12/09 10:11:02;;;;;;;101.30;40.70;;;;;;;-0.27;83.59;99407.88;103205;1317;25370;-58
2021/12/09 10:13:32;;;;;;;88.10;36.60;;;;;;;-0.25;83.49;99405.15;102909;1313;22603;-58
2021/12/09 10:16:01;;;;;;;92.00;36.90;;;;;;;-0.22;83.52;99397.25;103140;1316;22590;-59
2021/12/09 10:18:37;;;;;;;83.90;35.40;;;;;;;-0.20;83.44;99393.91;103286;1315;23550;-58
2021/12/09 10:21:07;;;;;;;115.40;47.60;;;;;;;-0.17;83.40;99403.89;103077;1315;22592;-57
2021/12/09 10:23:42;;;;;;;102.40;38.90;;;;;;;-0.14;83.49;99407.25;103151;1315;25456;-58
2021/12/09 10:26:24;;;;;;;111.40;41.50;;;;;;;-0.11;83.48;99409.92;103213;1316;24313;-64
2021/12/09 10:29:03;;;;;;;127.50;49.30;;;;;;;-0.09;83.51;99406.35;103185;1316;22627;-58
2021/12/09 10:31:35;;;;;;;107.50;41.90;;;;;;;-0.08;83.50;99407.97;103042;1316;22584;-58
2021/12/09 10:34:16;;;;;;;115.50;42.20;;;;;;;-0.07;83.40;99399.09;103174;1319;22662;-57
2021/12/09 10:37:00;;;;;;;115.80;42.70;;;;;;;-0.05;83.24;99392.17;103267;1319;24335;-58
2021/12/09 10:39:41;;;;;;;89.50;36.20;;;;;;;-0.07;83.18;99381.70;103313;1315;22793;-58
2021/12/09 10:42:14;;;;;;;92.20;36.10;;;;;;;-0.04;83.60;99375.42;103174;1315;22580;-58
2021/12/09 10:44:49;;;;;;;85.60;36.40;;;;;;;0.01;83.75;99381.73;103345;1315;23231;-58
2021/12/09 10:47:32;;;;;;;94.00;37.30;;;;;;;0.03;83.35;99370.73;103331;1316;22823;-57
2021/12/09 10:50:08;;;;;;;100.60;39.60;;;;;;;0.03;83.11;99362.33;103153;1315;23756;-58
2021/12/09 10:52:42;;;;;;;90.70;37.60;;;;;;;0.03;83.21;99372.76;103170;1313;22687;-58
2021/12/09 10:55:22;;;;;;;81.30;34.20;;;;;;;0.06;83.27;99381.64;103147;1316;25357;-58
2021/12/09 10:58:00;;;;;;;90.10;37.90;;;;;;;0.05;83.01;99380.33;103130;1316;26437;-58
2021/12/09 11:00:39;;;;;;;86.40;36.10;;;;;;;0.05;83.08;99374.59;103231;1318;27055;-58
2021/12/09 11:03:17;;;;;;;87.70;36.90;;;;;;;0.06;83.03;99386.82;103177;1316;24284;-57
2021/12/09 11:05:54;;;;;;;91.30;36.60;;;;;;;0.05;83.05;99377.50;103297;1317;22599;-56
2021/12/09 11:08:35;;;;;;;92.90;35.20;;;;;;;0.05;82.96;99364.48;103167;1316;22587;-54
2021/12/09 11:11:11;;;;;;;90.10;33.40;;;;;;;0.04;82.91;99345.76;103229;1316;25381;-58
2021/12/09 11:13:54;;;;;;;95.30;34.20;;;;;;;0.06;83.01;99349.17;103210;1313;22884;-54
2021/12/09 11:16:26;;;;;;;94.70;38.00;;;;;;;0.07;82.91;99358.46;103090;1315;22636;-55
2021/12/09 11:19:05;;;;;;;92.90;34.40;;;;;;;0.08;82.94;99364.00;103126;1313;24841;-55
2021/12/09 11:21:38;;;;;;;95.20;35.40;;;;;;;0.11;83.01;99368.40;103327;1319;22556;-56
2021/12/09 11:24:11;;;;;;;82.40;34.20;;;;;;;0.12;82.84;99368.54;103266;1317;25528;-55
2021/12/09 11:26:48;;;;;;;74.00;31.10;;;;;;;0.14;82.84;99366.14;103092;1313;22637;-54